ALG weather

Houari Boumediene Airport
Algiers, Boumerd├Ęs Province, Algeria

Public forecast

Using degrees Celsius for public forecast. Weather courtesy of forecast.io.

METAR (pilot weather report)

Retrieved 2019/05/26 10:30 UTC (0 seconds ago):

DAAG 261030Z 36012KT 9999 SCT020TCU SCT040 BKN083 20/15 Q1017

TAF (pilot weather forecast)

Retrieved 2019/05/26 06:00 UTC (4 hours ago):

TAF DAAG 260500Z 2606/2706 32008KT 9999 SCT020 SCT036 TEMPO 2606/2609 4000 RA FEW020CB BECMG 2607/2610 04012KT PROB30 TEMPO 2609/2614 5000 -RA FEW023TCU